Main page
METAR-TAF:

METAR-TAF

Airports :

Brunei, Brunei

Brunei International Airport

latitude: 04-56N, longitude: 114-56E, elevation: 22 m

Current weather observation

The report was made 41 minutes ago, at 08:30 UTC
Wind 5 kt from the North
Temperature 32°C
Humidity 59%
Pressure 1009 hPa
Visibility: 9000 m
Few clouds at a height of 1600 ft
Broken clouds at a height of 30000 ft

METAR: WBSB 230830Z 36005KT 9000 FEW016 BKN300 32/23 Q1009 NOSIG

Time: 17:11 (09:11 UTC)

Forecast

The report was made 4 hours and 11 minutes ago, at 05:00 UTC
Forecast valid from 23 at 06 UTC to 24 at 12 UTC
Wind 10 kt from the North
Visibility: 8000 m
Few clouds at a height of 1600 ft
Few clouds at a height of 1700 ft, Cumulonimbus.
Becoming
from 23 at 11 UTC to 23 at 13 UTC
Wind 3 kt from the South/Southwest
Scattered clouds at a height of 1500 ft
Few clouds at a height of 1600 ft, Cumulonimbus.

TAF: WBSB 230500Z 2306/2412 35010KT 8000 FEW016 FEW017CB BECMG 2311/2313 20003KT SCT015 FEW016CB

Weather observations and forecasts of more than 4000 airports (METAR and TAF reports).

The available stations are represented by yellow and red dots on the map.

Hover mouse over dot to see the name of the station.

Then click to see weather observations and forecasts.

To change the map : click on the green buttons with a black cross to zoom in, on the green button with a dash to zoom out, or on the green arrows for adjacent maps.


METAR-TAF: